CYVK1: Verdigris River, Coyville, KS

Data processed at Sun Jul 05 23:42:14 2015 Central Daylight Time


All information presented herein is the property of the government of the United States of America and may be revised or deleted at any time without prior notice.
Dissemination of this information without the expressed written consent of the Public Affairs Office, Tulsa District U.S. Army Corps of Engineers is strictly prohibited.
These data are gathered electronically and, as presented, have not undergone any form of quality control. These data are not guaranteed to be valid or correct.
Go to home page.
Go to station list.
Go to station map.

Upstream stations:

Downstream station: Previous Day
Next Day
Current Day

Display graphics.
Display DCP transmissions.


    
    SHEF ID:       CYVK1     Verdigris River, Coyville, KS
    STATION TYPE:  STREAM GAGE
    Regulation Limits:  Stage =   26.00, Flow =    7377
    
                   PRECIP     STAGE  RIV-FLOW   VOLTAGE  BAT-LOAD
                   INCHES      FEET       CFS     VOLTS     VOLTS
                     GOES      GOES      GOES      GOES      GOES
       (Cen)
    07/05 01:00      0.00     11.82      2422     12.89     12.81
    07/05 02:00      0.00     11.82      2422     12.89     12.81
    07/05 03:00      0.00     11.82      2422     12.89     12.73
    07/05 04:00      0.00     11.83      2425     12.81     12.73
    07/05 05:00      0.00     11.81      2419     12.81     12.73
    07/05 06:00      0.00     11.82      2422     12.81     12.65
    07/05 07:00      0.00     11.80      2415     12.73     12.65
    07/05 08:00      0.00     11.82      2422     12.73     12.65
    07/05 09:00      0.00     11.80      2415     12.81     12.73
    07/05 10:00      0.00     11.79      2412     13.29     13.05
    07/05 11:00      0.00     11.79      2412     13.29     13.29
    07/05 12:00      0.00     11.79      2412     13.29     13.13
    07/05 13:00      0.00     11.78      2409     13.37     13.29
    07/05 14:00      0.00     11.78      2409     14.00     13.44
    07/05 15:00      0.00     11.79      2412     14.00     13.68
    07/05 16:00      0.00     11.78      2409     14.16     13.84
    07/05 17:00      0.00     11.77      2405     14.16     13.84
    07/05 18:00      0.00     11.78      2409     13.92     13.68
    07/05 19:00      0.00     11.78      2409     13.29     13.37
    07/05 20:00      0.00     11.76      2402     12.97     12.97
    07/05 21:00      0.00     11.74      2396     12.97     12.89
    07/05 22:00      0.00     11.75      2399     12.97     12.81
    07/05 23:00      0.00     11.76      2402     12.89     12.81
    07/06 00:00      ----      ----      ----      ----      ----